createdAt,value
2022-10-30T00:01:28.929Z,5.13
2022-10-30T00:03:56.561Z,5.18
2022-10-30T00:06:24.270Z,5.78
2022-10-30T00:08:51.918Z,6.43
2022-10-30T00:11:19.656Z,5.22
2022-10-30T00:13:48.682Z,5.50
2022-10-30T00:16:16.318Z,6.03
2022-10-30T00:18:45.793Z,4.50
2022-10-30T00:21:14.275Z,5.47
2022-10-30T00:23:46.327Z,5.68
2022-10-30T00:26:14.011Z,5.20
2022-10-30T00:28:41.579Z,5.85
2022-10-30T00:31:10.956Z,5.65
2022-10-30T00:33:38.615Z,5.47
2022-10-30T00:36:10.474Z,5.47
2022-10-30T00:38:38.380Z,5.35
2022-10-30T00:41:06.174Z,4.78
2022-10-30T00:43:35.160Z,5.30
2022-10-30T00:46:07.109Z,5.43
2022-10-30T00:48:36.449Z,4.40
2022-10-30T00:51:06.236Z,5.60
2022-10-30T00:53:34.008Z,5.65
2022-10-30T00:56:03.753Z,5.57
2022-10-30T00:58:33.438Z,5.22
2022-10-30T01:01:12.835Z,4.68
2022-10-30T01:07:01.374Z,4.82
2022-10-30T01:09:30.853Z,4.82
2022-10-30T01:11:58.975Z,4.95
2022-10-30T01:14:27.209Z,4.50
2022-10-30T01:17:07.153Z,5.32
2022-10-30T01:19:39.860Z,5.82
2022-10-30T01:22:23.135Z,4.65
2022-10-30T01:24:56.767Z,5.97
2022-10-30T01:27:33.955Z,5.35
2022-10-30T01:30:07.199Z,4.63
2022-10-30T01:32:41.383Z,6.28
2022-10-30T01:35:11.360Z,5.13
2022-10-30T01:37:42.752Z,6.22
2022-10-30T01:40:13.988Z,5.95
2022-10-30T01:42:49.391Z,5.07
2022-10-30T01:45:19.521Z,5.97
2022-10-30T01:47:52.497Z,5.00
2022-10-30T01:50:28.046Z,4.88
2022-10-30T01:52:59.113Z,6.38
2022-10-30T01:55:34.007Z,5.80
2022-10-30T01:58:05.883Z,5.70
2022-10-30T02:00:33.597Z,6.97
2022-10-30T02:03:01.742Z,5.57
2022-10-30T02:05:32.961Z,6.68
2022-10-30T02:08:00.784Z,6.75
2022-10-30T02:10:31.003Z,6.40
2022-10-30T02:12:58.590Z,6.32
2022-10-30T02:15:26.241Z,6.50
2022-10-30T02:17:54.061Z,5.45
2022-10-30T02:20:23.279Z,6.53
2022-10-30T02:22:54.504Z,7.05
2022-10-30T02:25:25.743Z,6.43
2022-10-30T02:27:53.390Z,6.13
2022-10-30T02:30:21.106Z,6.10
2022-10-30T02:32:48.908Z,6.38
2022-10-30T02:35:16.709Z,5.47
2022-10-30T02:37:48.909Z,6.68
2022-10-30T02:40:16.627Z,5.90
2022-10-30T02:42:44.268Z,6.07
2022-10-30T02:45:12.593Z,6.05
2022-10-30T02:47:40.184Z,6.50
2022-10-30T02:50:08.628Z,6.63
2022-10-30T02:52:36.212Z,6.57
2022-10-30T02:55:05.561Z,6.88
2022-10-30T02:57:33.939Z,5.95
2022-10-30T03:00:09.571Z,6.25
2022-10-30T03:02:37.256Z,6.57
2022-10-30T03:05:05.307Z,6.97
2022-10-30T03:07:32.986Z,6.70
2022-10-30T03:10:03.596Z,5.13
2022-10-30T03:12:33.817Z,6.10
2022-10-30T03:17:43.187Z,7.30
2022-10-30T03:25:34.852Z,7.00
2022-10-30T03:28:04.568Z,7.13
2022-10-30T03:30:37.632Z,6.95
2022-10-30T03:35:49.011Z,6.35
2022-10-30T03:38:26.052Z,6.05
2022-10-30T03:40:54.331Z,6.85
2022-10-30T03:43:27.827Z,7.60
2022-10-30T03:45:56.136Z,6.55
2022-10-30T03:48:24.494Z,6.15
2022-10-30T03:50:53.569Z,7.85
2022-10-30T03:53:21.669Z,6.35
2022-10-30T03:56:03.527Z,6.75
2022-10-30T03:58:33.226Z,6.22
2022-10-30T04:01:04.617Z,6.63
2022-10-30T04:03:32.331Z,6.63
2022-10-30T04:06:00.345Z,7.75
2022-10-30T04:08:27.985Z,7.53
2022-10-30T04:10:56.075Z,7.47
2022-10-30T04:13:23.730Z,7.43
2022-10-30T04:15:56.434Z,6.72
2022-10-30T04:18:26.056Z,7.22
2022-10-30T04:20:53.710Z,6.80
2022-10-30T04:23:22.097Z,7.70
2022-10-30T04:25:49.782Z,8.20
2022-10-30T04:31:05.527Z,7.28
2022-10-30T04:33:34.175Z,7.90
2022-10-30T04:36:02.142Z,8.27
2022-10-30T04:38:29.761Z,6.53
2022-10-30T04:40:57.491Z,7.32
2022-10-30T04:43:25.100Z,7.60
2022-10-30T04:45:52.817Z,7.28
2022-10-30T04:48:21.770Z,7.47
2022-10-30T04:50:49.994Z,7.05
2022-10-30T04:53:18.274Z,6.00
2022-10-30T04:55:46.232Z,7.10
2022-10-30T04:58:14.216Z,7.68
2022-10-30T05:00:42.066Z,6.68
2022-10-30T05:03:12.995Z,7.28
2022-10-30T05:05:42.794Z,8.15
2022-10-30T05:10:52.463Z,6.90
2022-10-30T05:13:21.316Z,8.00
2022-10-30T05:15:49.441Z,9.85
2022-10-30T05:18:17.070Z,7.03
2022-10-30T05:20:47.511Z,6.50
2022-10-30T05:23:15.195Z,7.25
2022-10-30T05:25:42.775Z,7.50
2022-10-30T05:28:10.673Z,7.45
2022-10-30T05:30:38.324Z,7.13
2022-10-30T05:33:06.569Z,5.50
2022-10-30T05:35:35.637Z,6.93
2022-10-30T05:38:05.686Z,7.30
2022-10-30T05:40:33.749Z,7.40
2022-10-30T05:43:01.897Z,7.25
2022-10-30T05:45:29.656Z,7.18
2022-10-30T05:47:57.993Z,7.20
2022-10-30T05:50:26.208Z,7.75
2022-10-30T05:52:56.021Z,6.50
2022-10-30T05:55:25.554Z,7.53
2022-10-30T05:57:57.045Z,8.18
2022-10-30T06:00:25.296Z,6.93
2022-10-30T06:02:52.961Z,7.03
2022-10-30T06:05:20.620Z,7.43
2022-10-30T06:07:48.294Z,7.90
2022-10-30T06:10:16.083Z,7.57
2022-10-30T06:12:45.285Z,6.10
2022-10-30T06:15:12.877Z,7.30
2022-10-30T06:17:40.481Z,7.10
2022-10-30T06:20:08.360Z,6.55
2022-10-30T06:22:36.041Z,7.00
2022-10-30T06:25:03.825Z,6.78
2022-10-30T06:27:31.513Z,6.88
2022-10-30T06:30:00.444Z,6.90
2022-10-30T06:32:28.316Z,7.50
2022-10-30T06:34:56.191Z,6.85
2022-10-30T06:37:23.830Z,6.95
2022-10-30T06:39:51.467Z,7.07
2022-10-30T06:42:19.048Z,6.57
2022-10-30T06:44:46.814Z,7.47
2022-10-30T06:47:15.779Z,6.40
2022-10-30T06:49:43.381Z,6.80
2022-10-30T06:52:11.005Z,6.03
2022-10-30T06:54:38.974Z,6.00
2022-10-30T06:57:06.748Z,7.28
2022-10-30T06:59:34.349Z,6.85
2022-10-30T07:02:03.376Z,6.45
2022-10-30T07:04:34.565Z,7.13
2022-10-30T07:07:02.190Z,6.15
2022-10-30T07:09:29.981Z,5.90
2022-10-30T07:12:00.326Z,7.72
2022-10-30T07:14:30.544Z,5.95
2022-10-30T07:16:58.260Z,6.47
2022-10-30T07:19:25.904Z,5.53
2022-10-30T07:21:55.055Z,6.38
2022-10-30T07:24:22.636Z,6.00
2022-10-30T07:26:50.275Z,6.10
2022-10-30T07:29:17.903Z,6.75
2022-10-30T07:31:57.536Z,5.88
2022-10-30T07:34:29.931Z,5.72
2022-10-30T07:36:58.915Z,5.78
2022-10-30T07:39:26.513Z,6.28
2022-10-30T07:41:54.131Z,5.80
2022-10-30T07:44:21.741Z,5.70
2022-10-30T07:46:49.349Z,5.88
2022-10-30T07:49:17.069Z,6.32
2022-10-30T07:51:44.686Z,5.47
2022-10-30T07:54:13.773Z,5.40
2022-10-30T07:56:41.349Z,6.28
2022-10-30T07:59:09.030Z,4.80
2022-10-30T08:01:36.752Z,5.25
2022-10-30T08:04:05.326Z,5.35
2022-10-30T08:06:33.103Z,5.45
2022-10-30T08:09:00.743Z,5.38
2022-10-30T08:11:29.917Z,5.15
2022-10-30T08:13:57.660Z,4.95
2022-10-30T08:16:27.914Z,5.47
2022-10-30T08:18:55.574Z,5.28
2022-10-30T08:21:23.218Z,4.82
2022-10-30T08:23:51.693Z,5.20
2022-10-30T08:26:19.302Z,5.10
2022-10-30T08:28:48.338Z,5.10
2022-10-30T08:31:15.961Z,5.15
2022-10-30T08:33:43.933Z,5.30
2022-10-30T08:36:11.873Z,4.90
2022-10-30T08:38:39.898Z,5.40
2022-10-30T08:41:07.891Z,5.25
2022-10-30T08:43:35.637Z,5.75
2022-10-30T08:46:05.353Z,5.40
2022-10-30T08:48:33.483Z,5.50
2022-10-30T08:51:02.002Z,5.07
2022-10-30T08:53:29.626Z,6.38
2022-10-30T08:56:01.886Z,5.25
2022-10-30T09:04:03.275Z,4.68
2022-10-30T09:06:31.513Z,4.50
2022-10-30T09:08:59.143Z,4.82
2022-10-30T09:11:26.753Z,4.43
2022-10-30T09:13:54.589Z,5.45
2022-10-30T09:16:23.683Z,4.15
2022-10-30T09:18:51.280Z,4.35
2022-10-30T09:21:18.911Z,4.97
2022-10-30T09:23:46.542Z,5.47
2022-10-30T09:26:18.327Z,5.00
2022-10-30T09:28:48.539Z,4.63
2022-10-30T09:31:16.418Z,3.63
2022-10-30T09:33:45.361Z,4.28
2022-10-30T09:36:16.700Z,4.70
2022-10-30T09:38:47.279Z,5.57
2022-10-30T09:41:24.004Z,4.80
2022-10-30T09:43:58.230Z,6.05
2022-10-30T09:46:31.766Z,4.07
2022-10-30T09:49:04.326Z,5.28
2022-10-30T09:51:46.798Z,4.20
2022-10-30T09:54:20.311Z,4.28
2022-10-30T09:56:50.780Z,4.47
2022-10-30T09:59:21.513Z,4.72
2022-10-30T10:01:51.243Z,5.70
2022-10-30T10:04:26.715Z,5.35
2022-10-30T10:06:58.224Z,4.80
2022-10-30T10:09:27.629Z,5.00
2022-10-30T10:11:56.697Z,4.75
2022-10-30T10:14:25.701Z,5.55
2022-10-30T10:16:54.041Z,5.22
2022-10-30T10:19:23.841Z,5.78
2022-10-30T10:21:56.990Z,5.38
2022-10-30T10:24:26.280Z,4.95
2022-10-30T10:26:57.925Z,5.20
2022-10-30T10:29:49.516Z,5.43
2022-10-30T10:32:28.627Z,5.65
2022-10-30T10:35:09.355Z,5.60
2022-10-30T10:37:40.678Z,5.43
2022-10-30T10:40:20.744Z,4.88
2022-10-30T10:42:53.826Z,5.88
2022-10-30T10:45:25.535Z,6.10
2022-10-30T10:48:11.051Z,5.88
2022-10-30T10:50:43.271Z,6.60
2022-10-30T10:53:12.762Z,5.90
2022-10-30T10:55:42.545Z,6.13
2022-10-30T10:58:15.340Z,6.32
2022-10-30T11:00:43.729Z,5.50
2022-10-30T11:03:13.052Z,5.78
2022-10-30T11:05:45.029Z,6.57
2022-10-30T11:08:19.076Z,5.70
2022-10-30T11:10:47.504Z,5.45
2022-10-30T11:13:15.471Z,6.38
2022-10-30T11:15:48.820Z,5.85
2022-10-30T11:18:17.000Z,5.45
2022-10-30T11:21:02.538Z,5.72
2022-10-30T11:23:39.321Z,5.10
2022-10-30T11:26:26.024Z,5.90
2022-10-30T11:28:54.678Z,5.68
2022-10-30T11:31:23.337Z,6.03
2022-10-30T11:33:51.160Z,5.47
2022-10-30T11:36:22.780Z,6.35
2022-10-30T11:38:50.451Z,6.25
2022-10-30T11:41:18.595Z,5.63
2022-10-30T11:43:46.601Z,5.57
2022-10-30T11:46:19.322Z,5.82
2022-10-30T11:48:49.690Z,5.32
2022-10-30T11:51:30.800Z,5.65
2022-10-30T11:53:59.968Z,5.60
2022-10-30T11:56:29.059Z,6.30
2022-10-30T11:58:58.716Z,6.40
2022-10-30T12:01:27.252Z,4.60
2022-10-30T12:03:55.710Z,5.00
2022-10-30T12:06:29.728Z,5.50
2022-10-30T12:09:02.857Z,5.60
2022-10-30T12:11:32.000Z,6.07
2022-10-30T12:14:00.011Z,5.28
2022-10-30T12:16:28.630Z,5.30
2022-10-30T12:19:00.478Z,6.90
2022-10-30T12:21:29.228Z,5.75
2022-10-30T12:23:58.785Z,5.57
2022-10-30T12:26:29.473Z,5.57
2022-10-30T12:29:00.270Z,5.82
2022-10-30T12:31:33.305Z,5.53
2022-10-30T12:34:05.411Z,6.60
2022-10-30T12:36:37.386Z,6.80
2022-10-30T12:39:06.185Z,5.60
2022-10-30T12:41:39.395Z,6.07
2022-10-30T12:44:15.473Z,6.70
2022-10-30T12:46:47.133Z,5.60
2022-10-30T12:49:16.875Z,6.13
2022-10-30T12:51:49.098Z,5.85
2022-10-30T12:54:20.967Z,5.47
2022-10-30T12:56:52.645Z,7.15
2022-10-30T12:59:26.191Z,5.13
2022-10-30T13:01:57.019Z,5.28
2022-10-30T13:04:26.804Z,4.47
2022-10-30T13:06:58.530Z,5.88
2022-10-30T13:09:29.053Z,5.35
2022-10-30T13:12:10.093Z,4.80
2022-10-30T13:14:39.973Z,6.07
2022-10-30T13:17:11.151Z,5.93
2022-10-30T13:19:41.655Z,5.63
2022-10-30T13:22:14.777Z,6.30
2022-10-30T13:24:48.392Z,6.43
2022-10-30T13:27:21.167Z,5.45
2022-10-30T13:30:01.564Z,5.10
2022-10-30T13:32:35.284Z,6.85
2022-10-30T13:35:10.935Z,4.88
2022-10-30T13:37:41.466Z,5.63
2022-10-30T13:40:14.831Z,5.88
2022-10-30T13:42:50.126Z,4.93
2022-10-30T13:45:38.666Z,5.85
2022-10-30T13:48:09.897Z,5.93
2022-10-30T13:50:42.089Z,5.78
2022-10-30T13:53:16.888Z,5.70
2022-10-30T13:55:45.031Z,5.70
2022-10-30T13:58:17.820Z,5.80
2022-10-30T14:00:57.767Z,5.60
2022-10-30T14:03:30.806Z,6.18
2022-10-30T14:06:03.155Z,6.22
2022-10-30T14:08:34.727Z,7.03
2022-10-30T14:11:03.738Z,6.25
2022-10-30T14:13:45.789Z,6.88
2022-10-30T14:16:28.204Z,7.50
2022-10-30T14:19:03.083Z,5.18
2022-10-30T14:21:32.015Z,4.88
2022-10-30T14:24:03.951Z,4.45
2022-10-30T14:26:31.660Z,3.92
2022-10-30T14:29:20.628Z,4.35
2022-10-30T14:31:48.328Z,5.43
2022-10-30T14:34:30.825Z,4.57
2022-10-30T14:36:58.582Z,4.47
2022-10-30T14:39:28.608Z,4.97
2022-10-30T14:42:01.826Z,3.95
2022-10-30T14:44:43.004Z,3.72
2022-10-30T14:47:30.593Z,3.75
2022-10-30T14:50:01.983Z,2.08
2022-10-30T14:52:33.162Z,2.67
2022-10-30T14:55:06.980Z,1.95
2022-10-30T14:57:48.526Z,2.03
2022-10-30T15:00:46.543Z,2.67
2022-10-30T15:03:22.591Z,2.05
2022-10-30T15:05:52.623Z,2.28
2022-10-30T15:08:29.823Z,2.45
2022-10-30T15:11:05.148Z,2.72
2022-10-30T15:13:33.235Z,2.55
2022-10-30T15:16:01.553Z,2.40
2022-10-30T15:18:31.131Z,2.67
2022-10-30T15:21:02.713Z,2.92
2022-10-30T15:23:30.764Z,2.70
2022-10-30T15:26:03.599Z,2.08
2022-10-30T15:28:35.736Z,2.83
2022-10-30T15:31:04.266Z,2.80
2022-10-30T15:33:35.461Z,3.05
2022-10-30T15:36:03.269Z,2.90
2022-10-30T15:38:30.858Z,3.38
2022-10-30T15:40:59.425Z,3.13
2022-10-30T15:43:30.306Z,3.28
2022-10-30T15:45:57.960Z,3.72
2022-10-30T15:48:26.339Z,3.42
2022-10-30T15:50:59.912Z,2.78
2022-10-30T15:53:31.057Z,2.00
2022-10-30T15:55:59.604Z,2.55
2022-10-30T15:58:27.300Z,2.95
2022-10-30T16:00:58.348Z,3.10
2022-10-30T16:03:26.269Z,3.17
2022-10-30T16:06:05.786Z,2.97
2022-10-30T16:08:43.483Z,2.05
2022-10-30T16:11:11.363Z,2.80
2022-10-30T16:13:38.995Z,2.30
2022-10-30T16:16:07.292Z,2.55
2022-10-30T16:18:36.084Z,2.90
2022-10-30T16:21:06.925Z,2.33
2022-10-30T16:23:38.632Z,3.78
2022-10-30T16:26:06.543Z,3.13
2022-10-30T16:28:35.208Z,3.00
2022-10-30T16:31:04.504Z,3.30
2022-10-30T16:33:33.377Z,3.80
2022-10-30T16:36:04.324Z,3.65
2022-10-30T16:38:35.046Z,3.55
2022-10-30T16:41:02.747Z,3.80
2022-10-30T16:43:32.274Z,4.13
2022-10-30T16:46:19.692Z,3.80
2022-10-30T16:48:48.628Z,3.10
2022-10-30T16:51:17.440Z,3.20
2022-10-30T16:53:48.669Z,3.95
2022-10-30T16:56:20.518Z,3.83
2022-10-30T16:58:48.189Z,3.55
2022-10-30T17:01:16.019Z,3.70
2022-10-30T17:03:43.933Z,3.40
2022-10-30T17:06:26.626Z,2.95
2022-10-30T17:08:58.201Z,3.63
2022-10-30T17:11:35.759Z,3.60
2022-10-30T17:14:05.049Z,3.83
2022-10-30T17:16:33.846Z,3.40
2022-10-30T17:19:02.395Z,3.33
2022-10-30T17:21:31.340Z,3.22
2022-10-30T17:24:01.131Z,4.07
2022-10-30T17:26:29.790Z,3.28
2022-10-30T17:28:57.609Z,4.00
2022-10-30T17:31:28.226Z,3.92
2022-10-30T17:34:06.736Z,4.10
2022-10-30T17:36:34.438Z,3.35
2022-10-30T17:39:03.440Z,4.88
2022-10-30T17:41:31.111Z,3.63
2022-10-30T17:43:58.687Z,3.92
2022-10-30T17:46:26.329Z,4.07
2022-10-30T17:48:53.999Z,4.70
2022-10-30T17:51:21.617Z,4.95
2022-10-30T17:53:49.555Z,4.45
2022-10-30T17:56:20.523Z,5.00
2022-10-30T17:58:48.299Z,5.07
2022-10-30T18:01:17.354Z,5.70
2022-10-30T18:03:45.326Z,5.32
2022-10-30T18:06:17.248Z,6.15
2022-10-30T18:08:47.918Z,5.38
2022-10-30T18:11:20.924Z,4.80
2022-10-30T18:13:50.525Z,5.30
2022-10-30T18:16:18.926Z,5.40
2022-10-30T18:18:46.569Z,4.75
2022-10-30T18:21:14.852Z,6.25
2022-10-30T18:23:58.215Z,6.60
2022-10-30T18:26:28.932Z,7.78
2022-10-30T18:28:56.595Z,9.90
2022-10-30T18:31:25.233Z,8.13
2022-10-30T18:33:53.045Z,7.20
2022-10-30T18:36:21.525Z,7.50
2022-10-30T18:38:49.345Z,5.90
2022-10-30T18:41:17.893Z,5.72
2022-10-30T18:43:47.347Z,5.60
2022-10-30T18:46:15.895Z,5.00
2022-10-30T18:48:43.820Z,5.25
2022-10-30T18:51:15.685Z,5.93
2022-10-30T18:53:51.149Z,4.35
2022-10-30T18:56:19.382Z,5.40
2022-10-30T18:58:48.394Z,4.40
2022-10-30T19:01:17.194Z,4.20
2022-10-30T19:03:45.485Z,5.75
2022-10-30T19:06:13.735Z,4.57
2022-10-30T19:08:41.439Z,4.50
2022-10-30T19:11:10.726Z,4.78
2022-10-30T19:13:38.498Z,4.65
2022-10-30T19:16:11.058Z,5.47
2022-10-30T19:18:38.766Z,5.10
2022-10-30T19:21:10.174Z,5.57
2022-10-30T19:23:41.398Z,4.60
2022-10-30T19:28:50.647Z,4.57
2022-10-30T19:31:20.248Z,3.53
2022-10-30T19:33:52.851Z,3.72
2022-10-30T19:36:28.002Z,4.43
2022-10-30T19:38:55.996Z,4.13
2022-10-30T19:41:25.198Z,3.70
2022-10-30T19:44:00.811Z,4.25
2022-10-30T19:46:29.809Z,6.57
2022-10-30T19:48:58.961Z,6.43
2022-10-30T19:51:27.123Z,5.82
2022-10-30T19:53:54.810Z,6.53
2022-10-30T19:56:22.729Z,4.88
2022-10-30T19:58:51.594Z,4.88
2022-10-30T20:01:19.403Z,5.97
2022-10-30T20:03:48.643Z,6.85
2022-10-30T20:06:16.386Z,6.95
2022-10-30T20:08:44.048Z,5.70
2022-10-30T20:11:11.685Z,7.68
2022-10-30T20:13:39.315Z,6.57
2022-10-30T20:18:51.382Z,6.15
2022-10-30T20:21:20.426Z,5.68
2022-10-30T20:23:48.090Z,5.72
2022-10-30T20:26:19.997Z,5.15
2022-10-30T20:28:47.642Z,4.13
2022-10-30T20:31:15.429Z,4.70
2022-10-30T20:33:43.401Z,3.30
2022-10-30T20:36:13.728Z,3.70
2022-10-30T20:38:41.368Z,3.25
2022-10-30T20:41:19.453Z,4.15
2022-10-30T20:43:47.383Z,3.28
2022-10-30T20:46:15.170Z,3.38
2022-10-30T20:48:43.038Z,3.00
2022-10-30T20:51:12.534Z,2.40
2022-10-30T20:53:41.498Z,2.67
2022-10-30T20:56:09.117Z,2.65
2022-10-30T20:58:36.730Z,2.83
2022-10-30T21:01:04.418Z,2.95
2022-10-30T21:03:32.050Z,2.35
2022-10-30T21:06:01.200Z,2.63
2022-10-30T21:08:32.221Z,2.92
2022-10-30T21:11:01.580Z,2.80
2022-10-30T21:13:29.516Z,2.55
2022-10-30T21:16:00.941Z,2.65
2022-10-30T21:18:28.582Z,2.53
2022-10-30T21:21:00.432Z,2.80
2022-10-30T21:23:28.226Z,2.78
2022-10-30T21:26:01.066Z,2.75
2022-10-30T21:28:29.268Z,2.80
2022-10-30T21:31:01.360Z,3.00
2022-10-30T21:33:30.597Z,4.15
2022-10-30T21:35:58.214Z,3.63
2022-10-30T21:38:25.798Z,4.25
2022-10-30T21:40:56.951Z,4.63
2022-10-30T21:43:25.992Z,3.45
2022-10-30T21:45:53.703Z,3.53
2022-10-30T21:48:21.325Z,3.85
2022-10-30T21:50:49.060Z,5.07
2022-10-30T21:53:16.631Z,3.85
2022-10-30T21:55:49.448Z,3.97
2022-10-30T21:58:17.279Z,4.82
2022-10-30T22:00:46.257Z,4.60
2022-10-30T22:03:13.896Z,3.90
2022-10-30T22:05:41.511Z,3.95
2022-10-30T22:08:09.079Z,3.90
2022-10-30T22:10:36.730Z,4.93
2022-10-30T22:13:04.374Z,3.72
2022-10-30T22:15:31.980Z,4.13
2022-10-30T22:18:01.358Z,4.30
2022-10-30T22:20:29.203Z,4.38
2022-10-30T22:22:56.820Z,5.20
2022-10-30T22:25:24.641Z,4.93
2022-10-30T22:27:52.258Z,5.80
2022-10-30T22:30:19.919Z,5.35
2022-10-30T22:32:47.555Z,5.82
2022-10-30T22:35:16.769Z,5.97
2022-10-30T22:37:44.449Z,5.82
2022-10-30T22:40:12.436Z,7.88
2022-10-30T22:42:40.000Z,6.78
2022-10-30T22:45:08.249Z,8.15
2022-10-30T22:47:35.867Z,5.65
2022-10-30T22:50:03.469Z,6.43
2022-10-30T22:52:32.471Z,6.95
2022-10-30T22:55:00.109Z,6.47
2022-10-30T22:57:27.750Z,7.05
2022-10-30T22:59:55.347Z,7.57
2022-10-30T23:02:22.960Z,7.00
2022-10-30T23:04:50.675Z,7.68
2022-10-30T23:07:18.348Z,6.03
2022-10-30T23:09:47.280Z,5.15
2022-10-30T23:12:14.867Z,6.63
2022-10-30T23:14:42.532Z,5.07
2022-10-30T23:17:10.262Z,4.65
2022-10-30T23:19:37.910Z,5.53
2022-10-30T23:22:05.563Z,5.65
2022-10-30T23:24:33.911Z,5.38
2022-10-30T23:27:02.857Z,5.78
2022-10-30T23:29:30.604Z,5.80
2022-10-30T23:31:58.220Z,6.20
2022-10-30T23:34:25.834Z,6.47
2022-10-30T23:36:56.397Z,5.78
2022-10-30T23:39:28.700Z,5.18
2022-10-30T23:41:56.362Z,5.88
2022-10-30T23:44:25.299Z,6.68
2022-10-30T23:46:52.902Z,6.47
2022-10-30T23:49:20.482Z,6.68
2022-10-30T23:51:48.095Z,5.75
2022-10-30T23:54:15.683Z,6.07
2022-10-30T23:56:43.423Z,7.93
2022-10-30T23:59:11.172Z,6.43
